• Join FlightAware (Why Join?)
  • Login
  • US Flag 
12:43PM EDT


 

Airport Tracker/Info


-or-


 

Live Flight TrackerFlight Track Log ✈ FDX437 ✈ 07-May-2013 ✈ KLCK - KMEM

Flight Track Log - Related Links

Times and Time Zones

All times are in EDT time to prevent confusion due to time zone crossing. See the FDX437 flight status page for this flight to view local times or setup timezone preferences in your user account.

Time Position Orientation Groundspeed Altitude Reporting Facility
EDT Latitude Longitude Course Direction KTS MPH feet Rate Location/Type
09:31AM 39.6100 -83.4540 240° Southwest 18,700  Level FlightAware
09:32AM 39.5650 -83.5500 239° Southwest 21,100 2,580 Climbing FlightAware
09:32AM 39.5200 -83.6450 238° Southwest 22,900 2,460 Climbing FlightAware
09:33AM 39.4690 -83.7530 239° Southwest 24,000 2,400 Climbing FlightAware
09:34AM 39.4230 -83.8500 238° Southwest 25,800 2,640 Climbing FlightAware
09:35AM 39.3710 -83.9620 239° Southwest 27,700 2,640 Climbing FlightAware
09:35AM 39.3380 -84.0320 239° Southwest 29,300 2,760 Climbing FlightAware
09:36AM 39.2842 -84.1436 239° Southwest 487 560 31,400 2,460 Climbing Indianapolis Center
09:37AM 39.2139 -84.2897 238° Southwest 477 549 33,900 -120 Climbing Indianapolis Center
09:43AM 38.6510 -85.0570 238° Southwest 34,000 -180 Climbing FlightAware
09:44AM 38.5800 -85.1410 223° Southwest 34,000 -240 Level FlightAware
09:45AM 38.5210 -85.2210 227° Southwest 34,000 -240 Level FlightAware
09:45AM 38.4490 -85.3180 227° Southwest 34,000 -240 Level FlightAware
09:46AM 38.3850 -85.4030 226° Southwest 34,000 -240 Level FlightAware
09:47AM 38.3160 -85.4940 226° Southwest 34,000 -240 Level FlightAware
09:47AM 38.2530 -85.5770 226° Southwest 34,000 -240 Level FlightAware
09:48AM 38.1900 -85.6620 227° Southwest 34,000 -300 Level FlightAware
09:49AM 38.1190 -85.7560 226° Southwest 34,000 -300 Level FlightAware
09:49AM 38.0550 -85.8390 226° Southwest 34,000 -300 Level FlightAware
09:50AM 37.9850 -85.9320 226° Southwest 34,000 -300 Level FlightAware
09:51AM 37.9200 -86.0160 226° Southwest 34,000 -300 Level FlightAware
09:52AM 37.8570 -86.0980 226° Southwest 34,000 -300 Level FlightAware
09:52AM 37.7930 -86.1810 226° Southwest 34,000 -300 Level FlightAware
09:53AM 37.7210 -86.2750 226° Southwest 34,000 -360 Level FlightAware
09:54AM 37.6550 -86.3600 226° Southwest 34,000 -360 Level FlightAware
09:54AM 37.5880 -86.4470 226° Southwest 34,000 -360 Level FlightAware
09:55AM 37.5240 -86.5290 225° Southwest 34,000 -360 Level FlightAware
09:56AM 37.4580 -86.6140 226° Southwest 34,000 -360 Level FlightAware
09:56AM 37.3880 -86.7030 225° Southwest 34,000 -420 Level FlightAware
09:57AM 37.3260 -86.7830 226° Southwest 34,000 -420 Level FlightAware
09:58AM 37.2510 -86.8780 225° Southwest 34,000 -420 Level FlightAware
09:59AM 37.1910 -86.9540 225° Southwest 34,000 -480 Level FlightAware
09:59AM 37.1340 -87.0260 225° Southwest 33,700 -480 Descending FlightAware
10:00AM 37.0570 -87.1240 225° Southwest 32,900 -480 Descending FlightAware
10:01AM 36.9900 -87.2080 225° Southwest 32,200 -420 Descending FlightAware
10:01AM 36.9270 -87.2870 225° Southwest 31,500 -420 Descending FlightAware
10:02AM 36.8560 -87.3760 225° Southwest 30,800 -360 Descending FlightAware
10:03AM 36.7910 -87.4570 225° Southwest 30,100 -300 Descending FlightAware
10:03AM 36.7170 -87.5490 225° Southwest 30,000 -240 Descending FlightAware
10:04AM 36.6460 -87.6380 225° Southwest 30,000 -240 Level FlightAware
10:05AM 36.5800 -87.7190 225° Southwest 30,000 -300 Level FlightAware
10:06AM 36.5160 -87.7980 225° Southwest 30,000 -300 Level FlightAware
10:06AM 36.4410 -87.8910 225° Southwest 30,000 -360 Level FlightAware
10:07AM 36.3740 -87.9730 225° Southwest 30,000 -360 Level FlightAware
10:08AM 36.3200 -88.0390 225° Southwest 30,000 -420 Level FlightAware
10:09AM 36.2120 -88.1720 225° Southwest 30,000 -540 Level FlightAware
10:10AM 36.0580 -88.3750 227° Southwest 30,000 -720 Level FlightAware
10:11AM 36.0067 -88.4814 227° Southwest 489 563 28,300 -2,400 Descending Memphis Center
10:12AM 35.9461 -88.6083 240° Southwest 489 563 25,800 -2,640 Descending Memphis Center
10:13AM 35.8792 -88.7506 240° Southwest 489 563 23,100 -2,640 Descending Memphis Center
10:14AM 35.8161 -88.8875 240° Southwest 482 555 20,600 -2,640 Descending Memphis Center
10:15AM 35.7531 -89.0167 239° Southwest 465 535 17,900 -2,220 Descending Memphis Center
10:16AM 35.6814 -89.1353 233° Southwest 439 505 16,200 -1,980 Descending Memphis Center
10:17AM 35.6114 -89.2283 227° Southwest 384 442 14,000 -1,620 Descending Memphis Center
10:18AM 35.5392 -89.3211 226° Southwest 371 427 13,000 -1,020 Descending Memphis Center
10:19AM 35.4750 -89.4036 226° Southwest 348 400 12,000 -1,200 Descending Memphis Center
10:20AM 35.4067 -89.4681 218° Southwest 321 369 10,700 -1,560 Descending Memphis Center
10:21AM 35.3444 -89.5169 213° Southwest 303 349 8,900 -1,740 Descending Memphis Center
10:22AM 35.2739 -89.5711 212° Southwest 298 343 7,300 -1,620 Descending Memphis Center
10:23AM 35.2033 -89.6228 211° Southwest 298 343 5,700 -1,500 Descending Memphis Center
10:24AM 35.1369 -89.6714 211° Southwest 298 343 4,400 -1,020 Descending Memphis Center
10:25AM 35.0786 -89.7150 211° Southwest 266 306 3,700 -660 Descending Memphis Center
10:26AM 35.0561 -89.7686 243° Southwest 203 234 3,100 -720 Descending Memphis Center
10:27AM 35.0564 -89.8294 270° West 178 205 2,300 -960 Descending Memphis Center
10:28AM 35.0500 -89.8833 262° West 176 203 1,500 -900 Descending KMEM
10:29AM 35.0500 -89.9167 270° West 130 150 900 6,900 Descending KMEM
10:31AM 35.0592 -90.0450 275° West 156 180 24,000 9,600 Climbing Memphis Center
10:33AM 35.0424 -89.9767 107° East  Level Estimated
10:40AM 35.0424 -89.9767 141° Southeast  Level Estimated
10:41AM 35.0424 -89.9767 141° Southeast  Level Estimated
10:42AM 35.0424 -89.9767 141° Southeast  Level Estimated
10:43AM 35.0424 -89.9767 141° Southeast  Level Estimated
10:44AM 35.0424 -89.9767 141° Southeast  Level Estimated
10:45AM 35.0424 -89.9767 141° Southeast  Level Estimated
10:46AM 35.0424 -89.9767 141° Southeast  Level Estimated
10:47AM 35.0424 -89.9767 141° Southeast  Level Estimated
10:48AM 35.0424 -89.9767 141° Southeast  Level Estimated
10:49AM 35.0424 -89.9767 141° Southeast  Level Estimated
10:50AM 35.0424 -89.9767 141° Southeast  Level Estimated
10:51AM 35.0424 -89.9767 141° Southeast  Level Estimated
10:52AM 35.0424 -89.9767 141° Southeast  Level Estimated